sensor_id;sensor_type;location;lat;lon;timestamp;P1;durP1;ratioP1;P2;durP2;ratioP2
52982;SDS011;48698;45.736;13.926;2023-08-12T00:04:03;5.10;;;3.58;;
52982;SDS011;48698;45.736;13.926;2023-08-12T00:09:06;3.92;;;3.42;;
52982;SDS011;48698;45.736;13.926;2023-08-12T00:14:11;5.55;;;3.38;;
52982;SDS011;48698;45.736;13.926;2023-08-12T00:19:14;5.68;;;3.60;;
52982;SDS011;48698;45.736;13.926;2023-08-12T00:24:17;6.20;;;3.88;;
52982;SDS011;48698;45.736;13.926;2023-08-12T00:29:20;4.30;;;3.50;;
52982;SDS011;48698;45.736;13.926;2023-08-12T00:34:23;5.27;;;3.30;;
52982;SDS011;48698;45.736;13.926;2023-08-12T00:39:26;4.88;;;3.22;;
52982;SDS011;48698;45.736;13.926;2023-08-12T00:44:30;3.35;;;3.05;;
52982;SDS011;48698;45.736;13.926;2023-08-12T00:49:33;3.67;;;3.10;;
52982;SDS011;48698;45.736;13.926;2023-08-12T00:54:36;5.28;;;3.15;;
52982;SDS011;48698;45.736;13.926;2023-08-12T00:59:39;4.93;;;3.53;;
52982;SDS011;48698;45.736;13.926;2023-08-12T01:04:43;3.88;;;3.15;;
52982;SDS011;48698;45.736;13.926;2023-08-12T01:09:47;4.53;;;3.00;;
52982;SDS011;48698;45.736;13.926;2023-08-12T01:15:01;5.60;;;3.10;;
52982;SDS011;48698;45.736;13.926;2023-08-12T01:20:10;5.45;;;3.35;;
52982;SDS011;48698;45.736;13.926;2023-08-12T01:25:15;4.75;;;3.30;;
52982;SDS011;48698;45.736;13.926;2023-08-12T01:30:18;4.30;;;3.05;;
52982;SDS011;48698;45.736;13.926;2023-08-12T01:35:30;4.38;;;3.00;;
52982;SDS011;48698;45.736;13.926;2023-08-12T01:40:38;6.78;;;3.17;;
52982;SDS011;48698;45.736;13.926;2023-08-12T01:45:42;4.50;;;2.97;;
52982;SDS011;48698;45.736;13.926;2023-08-12T01:50:46;3.47;;;3.15;;
52982;SDS011;48698;45.736;13.926;2023-08-12T01:55:51;5.97;;;3.40;;
52982;SDS011;48698;45.736;13.926;2023-08-12T02:00:55;4.07;;;3.05;;
52982;SDS011;48698;45.736;13.926;2023-08-12T02:05:57;4.10;;;3.28;;
52982;SDS011;48698;45.736;13.926;2023-08-12T02:11:00;5.30;;;3.45;;
52982;SDS011;48698;45.736;13.926;2023-08-12T02:16:03;5.45;;;3.20;;
52982;SDS011;48698;45.736;13.926;2023-08-12T02:21:06;6.20;;;3.38;;
52982;SDS011;48698;45.736;13.926;2023-08-12T02:26:08;3.38;;;2.78;;
52982;SDS011;48698;45.736;13.926;2023-08-12T02:31:11;3.97;;;3.25;;
52982;SDS011;48698;45.736;13.926;2023-08-12T02:36:15;4.00;;;3.60;;
52982;SDS011;48698;45.736;13.926;2023-08-12T02:41:18;4.43;;;3.75;;
52982;SDS011;48698;45.736;13.926;2023-08-12T02:46:21;3.80;;;3.40;;
52982;SDS011;48698;45.736;13.926;2023-08-12T02:51:24;4.63;;;3.38;;
52982;SDS011;48698;45.736;13.926;2023-08-12T02:56:26;3.70;;;3.40;;
52982;SDS011;48698;45.736;13.926;2023-08-12T03:01:29;4.75;;;3.40;;
52982;SDS011;48698;45.736;13.926;2023-08-12T03:06:32;5.43;;;3.15;;
52982;SDS011;48698;45.736;13.926;2023-08-12T03:11:35;3.55;;;3.25;;
52982;SDS011;48698;45.736;13.926;2023-08-12T03:16:38;6.25;;;3.90;;
52982;SDS011;48698;45.736;13.926;2023-08-12T03:21:40;8.65;;;3.30;;
52982;SDS011;48698;45.736;13.926;2023-08-12T03:26:43;3.75;;;2.90;;
52982;SDS011;48698;45.736;13.926;2023-08-12T03:31:46;3.45;;;2.97;;
52982;SDS011;48698;45.736;13.926;2023-08-12T03:36:49;4.35;;;3.17;;
52982;SDS011;48698;45.736;13.926;2023-08-12T03:41:52;3.90;;;3.03;;
52982;SDS011;48698;45.736;13.926;2023-08-12T03:46:55;6.70;;;3.10;;
52982;SDS011;48698;45.736;13.926;2023-08-12T03:51:58;3.50;;;3.20;;
52982;SDS011;48698;45.736;13.926;2023-08-12T03:57:01;5.22;;;3.20;;
52982;SDS011;48698;45.736;13.926;2023-08-12T04:02:04;3.70;;;3.00;;
52982;SDS011;48698;45.736;13.926;2023-08-12T04:07:07;3.85;;;3.20;;
52982;SDS011;48698;45.736;13.926;2023-08-12T04:12:11;4.63;;;2.88;;
52982;SDS011;48698;45.736;13.926;2023-08-12T04:17:14;4.20;;;3.00;;
52982;SDS011;48698;45.736;13.926;2023-08-12T04:22:16;3.88;;;3.05;;
52982;SDS011;48698;45.736;13.926;2023-08-12T04:27:19;4.10;;;3.03;;
52982;SDS011;48698;45.736;13.926;2023-08-12T04:32:22;3.55;;;3.20;;
52982;SDS011;48698;45.736;13.926;2023-08-12T04:37:24;6.75;;;3.00;;
52982;SDS011;48698;45.736;13.926;2023-08-12T04:42:28;5.90;;;3.00;;
52982;SDS011;48698;45.736;13.926;2023-08-12T04:47:31;4.43;;;2.97;;
52982;SDS011;48698;45.736;13.926;2023-08-12T04:52:33;4.95;;;3.38;;
52982;SDS011;48698;45.736;13.926;2023-08-12T04:57:36;4.20;;;3.42;;
52982;SDS011;48698;45.736;13.926;2023-08-12T05:02:39;4.22;;;3.13;;
52982;SDS011;48698;45.736;13.926;2023-08-12T05:07:42;5.35;;;3.58;;
52982;SDS011;48698;45.736;13.926;2023-08-12T05:12:47;4.80;;;3.05;;
52982;SDS011;48698;45.736;13.926;2023-08-12T05:17:51;3.40;;;2.92;;
52982;SDS011;48698;45.736;13.926;2023-08-12T05:22:54;4.80;;;3.53;;
52982;SDS011;48698;45.736;13.926;2023-08-12T05:27:57;4.15;;;2.90;;
52982;SDS011;48698;45.736;13.926;2023-08-12T05:33:00;4.40;;;3.00;;
52982;SDS011;48698;45.736;13.926;2023-08-12T05:38:03;7.45;;;3.42;;
52982;SDS011;48698;45.736;13.926;2023-08-12T05:43:06;5.53;;;4.30;;
52982;SDS011;48698;45.736;13.926;2023-08-12T05:48:09;5.25;;;3.05;;
52982;SDS011;48698;45.736;13.926;2023-08-12T05:53:11;6.60;;;3.40;;
52982;SDS011;48698;45.736;13.926;2023-08-12T05:58:14;4.32;;;2.90;;
52982;SDS011;48698;45.736;13.926;2023-08-12T06:03:17;6.00;;;3.20;;
52982;SDS011;48698;45.736;13.926;2023-08-12T06:08:20;7.63;;;3.17;;
52982;SDS011;48698;45.736;13.926;2023-08-12T06:13:23;5.57;;;3.78;;
52982;SDS011;48698;45.736;13.926;2023-08-12T06:18:26;5.75;;;2.90;;
52982;SDS011;48698;45.736;13.926;2023-08-12T06:23:29;5.13;;;2.58;;
52982;SDS011;48698;45.736;13.926;2023-08-12T06:28:33;4.53;;;2.80;;
52982;SDS011;48698;45.736;13.926;2023-08-12T06:33:35;2.92;;;2.53;;
52982;SDS011;48698;45.736;13.926;2023-08-12T06:38:39;6.53;;;3.20;;
52982;SDS011;48698;45.736;13.926;2023-08-12T06:43:41;6.10;;;2.75;;
52982;SDS011;48698;45.736;13.926;2023-08-12T06:48:44;7.00;;;2.88;;
52982;SDS011;48698;45.736;13.926;2023-08-12T06:53:47;4.78;;;2.53;;
52982;SDS011;48698;45.736;13.926;2023-08-12T06:58:50;8.45;;;2.50;;
52982;SDS011;48698;45.736;13.926;2023-08-12T07:08:56;4.15;;;2.35;;
52982;SDS011;48698;45.736;13.926;2023-08-12T07:13:59;5.77;;;2.57;;
52982;SDS011;48698;45.736;13.926;2023-08-12T07:19:05;4.65;;;2.20;;
52982;SDS011;48698;45.736;13.926;2023-08-12T07:24:07;8.17;;;2.63;;
52982;SDS011;48698;45.736;13.926;2023-08-12T07:29:10;7.87;;;2.43;;
52982;SDS011;48698;45.736;13.926;2023-08-12T07:34:13;2.78;;;2.17;;
52982;SDS011;48698;45.736;13.926;2023-08-12T07:39:16;4.47;;;2.70;;
52982;SDS011;48698;45.736;13.926;2023-08-12T07:44:19;7.17;;;2.77;;
52982;SDS011;48698;45.736;13.926;2023-08-12T07:49:22;10.70;;;3.90;;
52982;SDS011;48698;45.736;13.926;2023-08-12T07:54:25;8.75;;;2.95;;
52982;SDS011;48698;45.736;13.926;2023-08-12T07:59:28;6.55;;;2.92;;
52982;SDS011;48698;45.736;13.926;2023-08-12T08:04:31;4.63;;;2.90;;
52982;SDS011;48698;45.736;13.926;2023-08-12T08:09:34;6.93;;;2.43;;
52982;SDS011;48698;45.736;13.926;2023-08-12T08:14:37;3.90;;;2.30;;
52982;SDS011;48698;45.736;13.926;2023-08-12T08:19:40;8.43;;;2.70;;
52982;SDS011;48698;45.736;13.926;2023-08-12T08:24:43;8.02;;;3.03;;
52982;SDS011;48698;45.736;13.926;2023-08-12T08:29:45;8.87;;;2.43;;
52982;SDS011;48698;45.736;13.926;2023-08-12T08:34:48;7.63;;;2.23;;
52982;SDS011;48698;45.736;13.926;2023-08-12T08:39:51;2.90;;;2.10;;
52982;SDS011;48698;45.736;13.926;2023-08-12T08:44:54;6.63;;;2.53;;
52982;SDS011;48698;45.736;13.926;2023-08-12T08:50:03;3.30;;;2.00;;
52982;SDS011;48698;45.736;13.926;2023-08-12T11:32:10;3.15;;;1.55;;
52982;SDS011;48698;45.736;13.926;2023-08-12T11:37:15;4.00;;;1.70;;
52982;SDS011;48698;45.736;13.926;2023-08-12T11:42:19;5.22;;;1.63;;
52982;SDS011;48698;45.736;13.926;2023-08-12T11:47:22;3.95;;;2.10;;
52982;SDS011;48698;45.736;13.926;2023-08-12T11:52:27;4.47;;;1.88;;
52982;SDS011;48698;45.736;13.926;2023-08-12T11:57:31;3.28;;;1.80;;
52982;SDS011;48698;45.736;13.926;2023-08-12T12:07:54;4.95;;;2.00;;
52982;SDS011;48698;45.736;13.926;2023-08-12T12:12:59;3.70;;;2.22;;
52982;SDS011;48698;45.736;13.926;2023-08-12T12:18:03;4.05;;;1.75;;
52982;SDS011;48698;45.736;13.926;2023-08-12T12:23:12;2.75;;;2.08;;
52982;SDS011;48698;45.736;13.926;2023-08-12T12:28:15;3.05;;;2.05;;
52982;SDS011;48698;45.736;13.926;2023-08-12T12:33:21;3.05;;;2.30;;
52982;SDS011;48698;45.736;13.926;2023-08-12T12:43:27;3.40;;;2.40;;
52982;SDS011;48698;45.736;13.926;2023-08-12T12:48:30;3.00;;;2.30;;
52982;SDS011;48698;45.736;13.926;2023-08-12T12:53:33;16.50;;;3.53;;
52982;SDS011;48698;45.736;13.926;2023-08-12T12:58:36;2.90;;;2.33;;
52982;SDS011;48698;45.736;13.926;2023-08-12T13:03:40;2.92;;;2.50;;
52982;SDS011;48698;45.736;13.926;2023-08-12T13:08:43;4.95;;;2.65;;
52982;SDS011;48698;45.736;13.926;2023-08-12T13:13:46;4.10;;;2.50;;
52982;SDS011;48698;45.736;13.926;2023-08-12T13:18:49;3.20;;;2.53;;
52982;SDS011;48698;45.736;13.926;2023-08-12T13:23:51;3.13;;;2.50;;
52982;SDS011;48698;45.736;13.926;2023-08-12T13:28:55;6.05;;;2.60;;
52982;SDS011;48698;45.736;13.926;2023-08-12T13:33:58;4.18;;;2.75;;
52982;SDS011;48698;45.736;13.926;2023-08-12T13:39:01;2.53;;;2.33;;
52982;SDS011;48698;45.736;13.926;2023-08-12T13:44:04;3.47;;;2.42;;
52982;SDS011;48698;45.736;13.926;2023-08-12T13:49:07;6.18;;;2.45;;
52982;SDS011;48698;45.736;13.926;2023-08-12T13:54:10;3.50;;;2.35;;
52982;SDS011;48698;45.736;13.926;2023-08-12T13:59:12;3.70;;;2.58;;
52982;SDS011;48698;45.736;13.926;2023-08-12T14:09:18;3.85;;;2.60;;
52982;SDS011;48698;45.736;13.926;2023-08-12T14:14:24;4.25;;;2.60;;
52982;SDS011;48698;45.736;13.926;2023-08-12T14:19:29;5.35;;;2.72;;
52982;SDS011;48698;45.736;13.926;2023-08-12T14:24:32;4.90;;;2.40;;
52982;SDS011;48698;45.736;13.926;2023-08-12T14:29:35;4.10;;;2.17;;
52982;SDS011;48698;45.736;13.926;2023-08-12T14:34:42;4.03;;;2.53;;
52982;SDS011;48698;45.736;13.926;2023-08-12T14:39:47;4.35;;;2.40;;
52982;SDS011;48698;45.736;13.926;2023-08-12T14:44:50;3.55;;;2.40;;
52982;SDS011;48698;45.736;13.926;2023-08-12T14:49:53;2.60;;;2.40;;
52982;SDS011;48698;45.736;13.926;2023-08-12T14:54:55;5.88;;;2.25;;
52982;SDS011;48698;45.736;13.926;2023-08-12T14:59:58;3.17;;;2.22;;
52982;SDS011;48698;45.736;13.926;2023-08-12T15:05:01;6.78;;;2.35;;
52982;SDS011;48698;45.736;13.926;2023-08-12T15:10:04;2.53;;;2.10;;
52982;SDS011;48698;45.736;13.926;2023-08-12T15:15:07;3.53;;;2.30;;
52982;SDS011;48698;45.736;13.926;2023-08-12T15:20:11;3.17;;;2.10;;
52982;SDS011;48698;45.736;13.926;2023-08-12T15:25:14;4.25;;;2.22;;
52982;SDS011;48698;45.736;13.926;2023-08-12T15:30:17;3.55;;;2.35;;
52982;SDS011;48698;45.736;13.926;2023-08-12T15:35:19;2.63;;;2.03;;
52982;SDS011;48698;45.736;13.926;2023-08-12T15:40:22;3.67;;;2.05;;
52982;SDS011;48698;45.736;13.926;2023-08-12T15:45:26;4.78;;;2.15;;
52982;SDS011;48698;45.736;13.926;2023-08-12T15:50:28;4.72;;;1.90;;
52982;SDS011;48698;45.736;13.926;2023-08-12T15:55:31;5.57;;;2.05;;
52982;SDS011;48698;45.736;13.926;2023-08-12T16:00:34;4.68;;;1.90;;
52982;SDS011;48698;45.736;13.926;2023-08-12T16:05:37;4.50;;;2.10;;
52982;SDS011;48698;45.736;13.926;2023-08-12T16:10:40;3.42;;;1.98;;
52982;SDS011;48698;45.736;13.926;2023-08-12T16:15:42;2.60;;;2.03;;
52982;SDS011;48698;45.736;13.926;2023-08-12T16:20:45;2.70;;;2.00;;
52982;SDS011;48698;45.736;13.926;2023-08-12T16:25:48;3.13;;;2.00;;
52982;SDS011;48698;45.736;13.926;2023-08-12T16:30:51;2.63;;;2.25;;
52982;SDS011;48698;45.736;13.926;2023-08-12T16:35:55;2.72;;;2.00;;
52982;SDS011;48698;45.736;13.926;2023-08-12T16:40:57;3.30;;;1.90;;
52982;SDS011;48698;45.736;13.926;2023-08-12T16:46:00;2.22;;;1.80;;
52982;SDS011;48698;45.736;13.926;2023-08-12T16:51:03;3.38;;;1.98;;
52982;SDS011;48698;45.736;13.926;2023-08-12T16:56:07;3.83;;;2.00;;
52982;SDS011;48698;45.736;13.926;2023-08-12T17:01:10;3.97;;;1.73;;
52982;SDS011;48698;45.736;13.926;2023-08-12T17:06:13;2.95;;;1.90;;
52982;SDS011;48698;45.736;13.926;2023-08-12T17:11:16;3.55;;;2.10;;
52982;SDS011;48698;45.736;13.926;2023-08-12T17:16:19;3.15;;;2.05;;
52982;SDS011;48698;45.736;13.926;2023-08-12T17:21:22;4.57;;;1.90;;
52982;SDS011;48698;45.736;13.926;2023-08-12T17:26:27;3.42;;;1.77;;
52982;SDS011;48698;45.736;13.926;2023-08-12T17:31:29;2.23;;;1.70;;
52982;SDS011;48698;45.736;13.926;2023-08-12T17:36:32;2.85;;;1.80;;
52982;SDS011;48698;45.736;13.926;2023-08-12T17:41:35;4.72;;;1.92;;
52982;SDS011;48698;45.736;13.926;2023-08-12T17:46:39;3.22;;;1.73;;
52982;SDS011;48698;45.736;13.926;2023-08-12T17:51:41;3.50;;;2.20;;
52982;SDS011;48698;45.736;13.926;2023-08-12T17:56:44;4.10;;;2.13;;
52982;SDS011;48698;45.736;13.926;2023-08-12T18:01:47;2.50;;;1.90;;
52982;SDS011;48698;45.736;13.926;2023-08-12T18:06:50;3.65;;;2.20;;
52982;SDS011;48698;45.736;13.926;2023-08-12T18:11:52;58.10;;;5.20;;
52982;SDS011;48698;45.736;13.926;2023-08-12T18:16:55;5.32;;;2.20;;
52982;SDS011;48698;45.736;13.926;2023-08-12T18:21:58;8.85;;;2.35;;
52982;SDS011;48698;45.736;13.926;2023-08-12T18:27:01;6.33;;;2.70;;
52982;SDS011;48698;45.736;13.926;2023-08-12T18:32:06;5.43;;;2.65;;
52982;SDS011;48698;45.736;13.926;2023-08-12T18:37:09;6.07;;;2.60;;
52982;SDS011;48698;45.736;13.926;2023-08-12T18:42:12;20.83;;;3.25;;
52982;SDS011;48698;45.736;13.926;2023-08-12T18:47:15;8.57;;;3.40;;
52982;SDS011;48698;45.736;13.926;2023-08-12T18:52:19;9.20;;;2.70;;
52982;SDS011;48698;45.736;13.926;2023-08-12T18:57:21;4.28;;;2.40;;
52982;SDS011;48698;45.736;13.926;2023-08-12T19:02:24;3.72;;;2.70;;
52982;SDS011;48698;45.736;13.926;2023-08-12T19:07:27;6.95;;;2.47;;
52982;SDS011;48698;45.736;13.926;2023-08-12T19:12:36;4.85;;;2.60;;
52982;SDS011;48698;45.736;13.926;2023-08-12T19:17:38;6.37;;;3.50;;
52982;SDS011;48698;45.736;13.926;2023-08-12T19:22:41;4.38;;;3.05;;
52982;SDS011;48698;45.736;13.926;2023-08-12T19:27:44;7.87;;;2.93;;
52982;SDS011;48698;45.736;13.926;2023-08-12T19:32:48;3.60;;;2.53;;
52982;SDS011;48698;45.736;13.926;2023-08-12T19:37:54;3.97;;;2.90;;
52982;SDS011;48698;45.736;13.926;2023-08-12T19:42:58;4.82;;;2.80;;
52982;SDS011;48698;45.736;13.926;2023-08-12T19:48:01;6.03;;;3.00;;
52982;SDS011;48698;45.736;13.926;2023-08-12T19:53:03;3.20;;;2.90;;
52982;SDS011;48698;45.736;13.926;2023-08-12T19:58:07;3.60;;;2.57;;
52982;SDS011;48698;45.736;13.926;2023-08-12T20:03:09;4.80;;;3.10;;
52982;SDS011;48698;45.736;13.926;2023-08-12T20:08:13;7.10;;;3.13;;
52982;SDS011;48698;45.736;13.926;2023-08-12T20:13:16;5.93;;;3.50;;
52982;SDS011;48698;45.736;13.926;2023-08-12T20:18:18;4.97;;;2.92;;
52982;SDS011;48698;45.736;13.926;2023-08-12T20:23:21;5.63;;;3.03;;
52982;SDS011;48698;45.736;13.926;2023-08-12T20:28:24;6.15;;;3.35;;
52982;SDS011;48698;45.736;13.926;2023-08-12T20:33:27;5.15;;;3.20;;
52982;SDS011;48698;45.736;13.926;2023-08-12T20:38:30;6.30;;;3.60;;
52982;SDS011;48698;45.736;13.926;2023-08-12T20:43:33;4.03;;;3.40;;
52982;SDS011;48698;45.736;13.926;2023-08-12T20:48:36;5.28;;;3.67;;
52982;SDS011;48698;45.736;13.926;2023-08-12T20:53:39;6.63;;;3.53;;
52982;SDS011;48698;45.736;13.926;2023-08-12T20:58:42;4.30;;;3.65;;
52982;SDS011;48698;45.736;13.926;2023-08-12T21:03:44;5.28;;;3.45;;
52982;SDS011;48698;45.736;13.926;2023-08-12T21:08:47;4.40;;;3.45;;
52982;SDS011;48698;45.736;13.926;2023-08-12T21:13:50;4.20;;;3.20;;
52982;SDS011;48698;45.736;13.926;2023-08-12T21:18:53;4.88;;;3.35;;
52982;SDS011;48698;45.736;13.926;2023-08-12T21:23:55;8.77;;;4.05;;
52982;SDS011;48698;45.736;13.926;2023-08-12T21:28:58;4.40;;;3.50;;
52982;SDS011;48698;45.736;13.926;2023-08-12T21:34:01;5.80;;;3.33;;
52982;SDS011;48698;45.736;13.926;2023-08-12T21:39:04;5.30;;;3.63;;
52982;SDS011;48698;45.736;13.926;2023-08-12T21:44:07;4.85;;;3.58;;
52982;SDS011;48698;45.736;13.926;2023-08-12T21:49:10;7.13;;;4.00;;
52982;SDS011;48698;45.736;13.926;2023-08-12T21:54:13;5.30;;;3.97;;
52982;SDS011;48698;45.736;13.926;2023-08-12T21:59:16;4.80;;;4.22;;
52982;SDS011;48698;45.736;13.926;2023-08-12T22:04:18;5.95;;;4.20;;
52982;SDS011;48698;45.736;13.926;2023-08-12T22:09:21;4.77;;;3.60;;
52982;SDS011;48698;45.736;13.926;2023-08-12T22:14:24;5.53;;;3.92;;
52982;SDS011;48698;45.736;13.926;2023-08-12T22:19:27;6.18;;;4.20;;
52982;SDS011;48698;45.736;13.926;2023-08-12T22:24:31;6.53;;;4.45;;
52982;SDS011;48698;45.736;13.926;2023-08-12T22:29:34;6.78;;;4.78;;
52982;SDS011;48698;45.736;13.926;2023-08-12T22:34:37;5.45;;;4.95;;
52982;SDS011;48698;45.736;13.926;2023-08-12T22:39:39;6.03;;;4.50;;
52982;SDS011;48698;45.736;13.926;2023-08-12T22:44:43;5.40;;;4.72;;
52982;SDS011;48698;45.736;13.926;2023-08-12T22:49:46;4.55;;;4.03;;
52982;SDS011;48698;45.736;13.926;2023-08-12T22:54:49;5.13;;;4.47;;
52982;SDS011;48698;45.736;13.926;2023-08-12T22:59:52;5.00;;;4.50;;
52982;SDS011;48698;45.736;13.926;2023-08-12T23:04:55;7.30;;;5.10;;
52982;SDS011;48698;45.736;13.926;2023-08-12T23:10:00;5.18;;;4.68;;
52982;SDS011;48698;45.736;13.926;2023-08-12T23:15:03;5.72;;;4.70;;
52982;SDS011;48698;45.736;13.926;2023-08-12T23:25:11;9.07;;;4.68;;
52982;SDS011;48698;45.736;13.926;2023-08-12T23:30:14;5.00;;;4.50;;
52982;SDS011;48698;45.736;13.926;2023-08-12T23:35:17;7.72;;;4.78;;
52982;SDS011;48698;45.736;13.926;2023-08-12T23:40:20;5.25;;;4.72;;
52982;SDS011;48698;45.736;13.926;2023-08-12T23:45:23;5.47;;;4.80;;
52982;SDS011;48698;45.736;13.926;2023-08-12T23:50:25;4.13;;;3.72;;
52982;SDS011;48698;45.736;13.926;2023-08-12T23:55:29;5.57;;;3.92;;
